Time;durP1;ratioP1;P1;durP2;ratioP2;P2;SDS_P1;SDS_P2;PMS_P1;PMS_P2;Temp;Humidity;BMP_temperature;BMP_pressure;BME280_temperature;BME280_humidity;BME280_pressure;Samples;Min_cycle;Max_cycle;Signal;HPM_P1;HPM_P2
2022/04/26 03:36:10;;;;;;;4.79;2.47;;;10.70;99.90;;;11.27;nan;97443.09;171720;28;1183;-71
2022/04/26 03:36:16;;;;;;;4.15;2.41;;;10.70;99.90;;;11.23;nan;97441.81;170319;29;1222;-71
2022/04/26 03:36:22;;;;;;;4.35;2.47;;;10.70;99.90;;;11.18;nan;97450.47;169764;29;857;-71
2022/04/26 03:36:28;;;;;;;4.25;2.45;;;10.70;99.90;;;11.18;nan;97445.06;170462;29;968;-71
2022/04/26 03:36:34;;;;;;;4.25;2.45;;;10.70;99.90;;;11.16;nan;97441.72;171036;28;999;-72
2022/04/26 03:36:40;;;;;;;4.03;2.35;;;10.70;99.90;;;11.15;nan;97441.91;170403;29;816;-71
2022/04/26 03:36:46;;;;;;;3.73;2.23;;;10.70;99.90;;;11.14;nan;97449.16;171801;28;911;-71
2022/04/26 03:36:52;;;;;;;3.70;2.20;;;10.70;99.90;;;11.11;nan;97452.25;171712;28;912;-71
2022/04/26 03:36:59;;;;;;;3.60;2.17;;;10.70;99.90;;;11.12;nan;97451.22;170387;29;1318;-71
2022/04/26 03:37:05;;;;;;;3.73;2.20;;;10.60;99.90;;;11.08;nan;97444.56;170215;29;1487;-72
2022/04/26 03:37:12;;;;;;;3.67;2.15;;;10.60;99.90;;;11.09;nan;97441.66;171005;28;911;-71
2022/04/26 03:37:19;;;;;;;3.63;2.23;;;10.70;99.90;;;11.16;nan;97448.97;171112;28;931;-71
2022/04/26 03:37:25;;;;;;;3.63;2.23;;;10.60;99.90;;;11.18;nan;97455.03;171179;28;1015;-71
2022/04/26 03:37:32;;;;;;;3.92;2.30;;;10.60;99.90;;;11.18;nan;97455.84;171078;28;892;-71
2022/04/26 03:37:39;;;;;;;4.42;2.40;;;10.60;99.90;;;11.10;nan;97447.88;171305;28;1761;-71
2022/04/26 03:37:45;;;;;;;4.88;2.42;;;10.60;99.90;;;11.12;nan;97447.69;172286;28;1121;-71
2022/04/26 03:37:51;;;;;;;4.78;2.40;;;10.60;99.90;;;11.13;nan;97446.69;170902;28;1477;-71
2022/04/26 03:37:57;;;;;;;4.53;2.28;;;10.60;99.90;;;11.11;nan;97454.94;171171;28;989;-71
2022/04/26 03:38:03;;;;;;;4.38;2.28;;;10.60;99.90;;;11.08;nan;97450.78;171028;28;923;-71
2022/04/26 03:38:08;;;;;;;4.18;2.30;;;10.60;99.90;;;11.06;nan;97452.81;172285;28;1569;-71
2022/04/26 03:38:16;;;;;;;3.88;2.25;;;10.60;99.90;;;11.04;nan;97454.84;172415;28;931;-71
2022/04/26 03:38:22;;;;;;;4.12;2.32;;;10.60;99.90;;;11.04;nan;97449.47;171564;28;1522;-71
2022/04/26 03:38:28;;;;;;;4.15;2.35;;;10.60;99.90;;;11.05;nan;97456.53;173174;28;1011;-73
2022/04/26 03:38:34;;;;;;;3.85;2.28;;;10.70;99.90;;;11.05;nan;97448.44;171675;28;2007;-71
2022/04/26 03:38:47;;;;;;;3.80;2.37;;;10.60;99.90;;;11.08;nan;97456.19;171685;28;899;-71
2022/04/26 03:38:53;;;;;;;3.81;2.34;;;10.60;99.90;;;11.04;nan;97441.41;170720;28;1938;-71
2022/04/26 03:38:59;;;;;;;5.18;2.33;;;10.60;99.90;;;11.08;nan;97444.56;170971;28;892;-73
2022/04/26 03:39:06;;;;;;;5.50;2.28;;;10.60;99.90;;;11.09;nan;97447.03;170933;28;1654;-71
2022/04/26 03:39:12;;;;;;;5.53;2.07;;;10.60;99.90;;;11.12;nan;97451.22;171065;28;1285;-71
2022/04/26 03:39:18;;;;;;;5.32;2.00;;;10.60;99.90;;;11.07;nan;97448.28;171012;28;1337;-71
2022/04/26 03:39:24;;;;;;;5.50;2.10;;;10.60;99.90;;;11.05;nan;97456.53;171804;28;816;-71
2022/04/26 03:39:29;;;;;;;3.75;2.05;;;10.60;99.90;;;11.06;nan;97447.44;171691;28;1483;-71
2022/04/26 03:39:35;;;;;;;3.97;2.13;;;10.60;99.90;;;11.13;nan;97455.59;171805;28;1323;-71
2022/04/26 03:39:41;;;;;;;3.90;2.22;;;10.60;99.90;;;11.08;nan;97449.94;171062;28;896;-71
2022/04/26 03:39:47;;;;;;;4.15;2.42;;;10.60;99.90;;;11.06;nan;97451.97;171078;28;797;-71
2022/04/26 03:39:54;;;;;;;4.45;2.60;;;10.60;99.90;;;11.14;nan;97459.13;172313;28;927;-71
2022/04/26 03:40:00;;;;;;;4.42;2.60;;;10.60;99.90;;;11.15;nan;97450.00;170480;29;1517;-71
2022/04/26 03:40:07;;;;;;;4.20;2.60;;;10.60;99.90;;;11.13;nan;97452.06;171186;28;816;-71
2022/04/26 03:40:13;;;;;;;4.26;2.62;;;10.60;99.90;;;11.13;nan;97450.22;171089;28;862;-71
2022/04/26 03:40:19;;;;;;;4.07;2.30;;;10.60;99.90;;;11.08;nan;97445.41;171783;28;819;-71
2022/04/26 03:40:26;;;;;;;4.30;2.23;;;10.60;99.90;;;11.13;nan;97454.75;171047;28;1295;-71
2022/04/26 03:40:31;;;;;;;4.38;2.28;;;10.60;99.90;;;11.07;nan;97451.81;171161;28;1582;-71
2022/04/26 03:40:37;;;;;;;4.60;2.30;;;10.60;99.90;;;11.08;nan;97455.34;171629;28;1315;-71
2022/04/26 03:40:43;;;;;;;4.47;2.20;;;10.60;99.90;;;11.11;nan;97465.72;172399;28;797;-71
2022/04/26 03:40:49;;;;;;;4.18;2.17;;;10.60;99.90;;;11.14;nan;97459.13;172508;28;836;-71
2022/04/26 03:40:57;;;;;;;4.40;2.15;;;10.60;99.90;;;11.07;nan;97451.81;171714;28;1032;-71
2022/04/26 03:41:03;;;;;;;4.37;2.15;;;10.60;99.90;;;11.07;nan;97449.09;172914;28;2688;-71
2022/04/26 03:41:10;;;;;;;4.50;2.17;;;10.60;99.90;;;11.10;nan;97453.25;171675;28;884;-71
2022/04/26 03:41:16;;;;;;;4.90;2.32;;;10.60;99.90;;;11.01;nan;97455.25;171620;28;1345;-71
2022/04/26 03:41:22;;;;;;;4.65;2.30;;;10.60;99.90;;;11.07;nan;97451.81;171707;28;883;-71
2022/04/26 03:41:28;;;;;;;4.45;2.38;;;10.60;99.90;;;11.09;nan;97457.81;172428;28;1630;-71
2022/04/26 03:41:35;;;;;;;4.03;2.35;;;10.60;99.90;;;11.07;nan;97441.03;171583;28;1523;-71
2022/04/26 03:41:40;;;;;;;4.28;2.38;;;10.60;99.90;;;11.13;nan;97447.50;171010;28;1542;-71
2022/04/26 03:41:46;;;;;;;4.35;2.40;;;10.60;99.90;;;11.17;nan;97458.72;171689;28;1400;-71
2022/04/26 03:41:52;;;;;;;4.78;2.55;;;10.60;99.90;;;11.11;nan;97460.34;171031;28;1378;-71
2022/04/26 03:42:02;;;;;;;5.00;2.53;;;10.60;99.90;;;11.14;nan;97461.81;171046;28;1218;-71
2022/04/26 03:42:08;;;;;;;5.14;2.50;;;10.60;99.90;;;11.17;nan;97464.97;170154;29;1872;-71
2022/04/26 03:42:14;;;;;;;4.93;2.42;;;10.60;99.90;;;11.11;nan;97452.25;170346;29;848;-71
2022/04/26 03:42:20;;;;;;;4.45;2.55;;;10.60;99.90;;;11.14;nan;97459.94;170319;29;1181;-71
2022/04/26 03:42:26;;;;;;;4.13;2.42;;;10.50;99.90;;;11.16;nan;97454.38;170535;29;904;-71
2022/04/26 03:42:34;;;;;;;3.97;2.50;;;10.60;99.90;;;11.14;nan;97456.44;170999;28;1392;-71
2022/04/26 03:42:40;;;;;;;3.85;2.43;;;10.60;99.90;;;11.07;nan;97451.81;171777;28;1090;-72
2022/04/26 03:42:46;;;;;;;4.50;2.43;;;10.60;99.90;;;11.06;nan;97450.13;171811;28;887;-71
2022/04/26 03:42:51;;;;;;;4.95;2.53;;;10.60;99.90;;;11.13;nan;97460.97;171703;28;880;-71
2022/04/26 03:42:57;;;;;;;5.10;2.60;;;10.60;99.90;;;11.18;nan;97463.09;171792;28;816;-71
2022/04/26 03:43:03;;;;;;;5.15;2.60;;;10.60;99.90;;;11.14;nan;97456.44;171680;28;1582;-71
2022/04/26 03:43:09;;;;;;;4.90;2.55;;;10.60;99.90;;;11.18;nan;97457.72;171116;28;1018;-73
2022/04/26 03:43:15;;;;;;;4.22;2.40;;;10.60;99.90;;;11.17;nan;97456.88;171138;28;911;-71
2022/04/26 03:43:21;;;;;;;3.97;2.30;;;10.60;99.90;;;11.18;nan;97463.09;171671;28;1217;-71
2022/04/26 03:43:27;;;;;;;3.88;2.20;;;10.60;99.90;;;11.15;nan;97444.59;172339;28;1324;-71
2022/04/26 03:43:33;;;;;;;3.67;2.13;;;10.60;99.90;;;11.21;nan;97455.47;172498;28;879;-72
2022/04/26 03:43:40;;;;;;;3.75;2.13;;;10.60;99.90;;;11.19;nan;97462.09;172265;28;1724;-71
2022/04/26 03:43:45;;;;;;;3.50;2.13;;;10.60;99.90;;;11.20;nan;97463.72;171920;28;1530;-71
2022/04/26 03:43:51;;;;;;;3.35;2.05;;;10.60;99.90;;;11.16;nan;97455.19;172300;28;1233;-71
2022/04/26 03:43:58;;;;;;;3.30;2.00;;;10.60;99.90;;;11.19;nan;97457.50;171689;28;1205;-71
2022/04/26 03:44:04;;;;;;;3.38;2.00;;;10.60;99.90;;;11.19;nan;97454.81;171778;28;936;-71
2022/04/26 03:44:10;;;;;;;3.70;2.03;;;10.60;99.90;;;11.22;nan;97461.69;172359;28;2488;-71
2022/04/26 03:44:16;;;;;;;3.80;2.00;;;10.60;99.90;;;11.23;nan;97457.97;172424;28;947;-71
2022/04/26 03:44:22;;;;;;;3.87;2.20;;;10.60;99.90;;;11.15;nan;97455.38;172227;28;2096;-71
2022/04/26 03:44:28;;;;;;;3.80;2.15;;;10.60;99.90;;;11.12;nan;97453.91;172398;28;816;-71
2022/04/26 03:44:34;;;;;;;3.70;2.12;;;10.60;99.90;;;11.12;nan;97463.84;171728;28;1046;-71
2022/04/26 03:44:40;;;;;;;4.05;2.10;;;10.50;99.90;;;11.15;nan;97458.06;172430;28;1334;-71
2022/04/26 03:44:46;;;;;;;4.20;2.25;;;10.60;99.90;;;11.17;nan;97456.88;173040;28;2046;-71
2022/04/26 03:44:52;;;;;;;4.50;2.30;;;10.60;99.90;;;11.13;nan;97452.06;171688;28;1364;-71
2022/04/26 03:44:58;;;;;;;4.60;2.33;;;10.60;99.90;;;11.15;nan;97453.53;172236;28;1809;-71
2022/04/26 03:45:05;;;;;;;4.63;2.42;;;10.60;99.90;;;11.18;nan;97455.84;172143;28;1492;-71
2022/04/26 03:45:11;;;;;;;4.40;2.40;;;10.60;99.90;;;11.16;nan;97454.38;171307;28;1611;-71
2022/04/26 03:45:17;;;;;;;4.20;2.40;;;10.50;99.90;;;11.21;nan;97462.69;172336;28;1219;-71
2022/04/26 03:45:23;;;;;;;3.98;2.30;;;10.60;99.90;;;11.22;nan;97465.22;172462;28;903;-71
2022/04/26 03:45:29;;;;;;;3.97;2.20;;;10.60;99.90;;;11.20;nan;97453.78;171628;28;964;-71
2022/04/26 03:45:35;;;;;;;3.92;2.15;;;10.50;99.90;;;11.21;nan;97449.22;171779;28;1746;-71
2022/04/26 03:45:41;;;;;;;4.13;2.28;;;10.50;99.90;;;11.02;nan;97429.16;171772;28;859;-70
2022/04/26 03:45:47;;;;;;;4.50;2.37;;;10.50;99.90;;;11.21;nan;97462.69;171761;28;919;-71
2022/04/26 03:45:53;;;;;;;4.50;2.30;;;10.60;99.90;;;11.20;nan;97452.94;171743;28;919;-71
2022/04/26 03:45:59;;;;;;;4.53;2.40;;;10.50;99.90;;;11.19;nan;97457.50;171753;28;958;-71
2022/04/26 03:46:05;;;;;;;4.60;2.45;;;10.60;99.90;;;11.18;nan;97458.56;171774;28;1019;-71
2022/04/26 03:46:11;;;;;;;4.37;2.37;;;10.50;99.90;;;11.18;nan;97455.84;171010;28;1896;-71
2022/04/26 03:46:17;;;;;;;4.05;2.25;;;10.50;99.90;;;11.21;nan;97457.31;171467;28;1715;-71
2022/04/26 03:46:23;;;;;;;4.60;2.30;;;10.50;99.90;;;11.20;nan;97455.63;172388;28;986;-71
2022/04/26 03:46:29;;;;;;;4.68;2.28;;;10.50;99.90;;;11.10;nan;97455.97;171739;28;1483;-71
2022/04/26 03:46:35;;;;;;;4.75;2.33;;;10.60;99.90;;;11.15;nan;97463.47;172430;28;926;-71
2022/04/26 03:46:40;;;;;;;5.03;2.40;;;10.50;99.90;;;11.14;nan;97454.53;172447;28;1006;-71
2022/04/26 03:46:46;;;;;;;4.57;2.40;;;10.50;99.90;;;11.16;nan;97452.50;173106;28;1220;-71
2022/04/26 03:46:53;;;;;;;4.07;2.42;;;10.50;99.90;;;11.17;nan;97462.25;173015;28;1313;-71
2022/04/26 03:46:59;;;;;;;3.95;2.42;;;10.50;99.90;;;11.17;nan;97450.66;171644;28;1591;-71
2022/04/26 03:47:05;;;;;;;3.67;2.30;;;10.50;99.90;;;11.16;nan;97459.75;172383;28;1338;-71
2022/04/26 03:47:11;;;;;;;3.18;2.18;;;10.50;99.90;;;11.16;nan;97449.81;172244;28;2736;-71
2022/04/26 03:47:17;;;;;;;5.30;2.30;;;10.50;99.90;;;11.21;nan;97465.41;171140;28;1105;-71
2022/04/26 03:47:23;;;;;;;5.25;2.25;;;10.50;99.90;;;11.24;nan;97462.34;171122;28;840;-71
2022/04/26 03:47:29;;;;;;;5.27;2.23;;;10.50;99.90;;;11.23;nan;97458.81;171080;28;1027;-71
2022/04/26 03:47:35;;;;;;;5.57;2.40;;;10.50;99.90;;;11.17;nan;97450.66;171147;28;908;-71
2022/04/26 03:47:41;;;;;;;5.95;2.58;;;10.50;99.90;;;11.20;nan;97458.34;171073;28;1074;-71
2022/04/26 03:47:47;;;;;;;4.75;2.60;;;10.50;99.90;;;11.21;nan;97462.69;171121;28;1208;-71
2022/04/26 03:47:52;;;;;;;4.57;2.55;;;10.50;99.90;;;11.17;nan;97456.03;170849;28;1518;-72
2022/04/26 03:47:58;;;;;;;4.72;2.47;;;10.50;99.90;;;11.20;nan;97461.03;171719;28;1451;-71
2022/04/26 03:48:05;;;;;;;4.45;2.28;;;10.50;99.90;;;11.20;nan;97458.34;170982;28;840;-71
2022/04/26 03:48:10;;;;;;;4.70;2.20;;;10.50;99.90;;;11.17;nan;97459.56;171787;28;1406;-71
2022/04/26 03:48:16;;;;;;;3.97;2.10;;;10.50;99.90;;;11.22;nan;97450.91;170297;29;1175;-72
2022/04/26 03:48:22;;;;;;;4.30;2.03;;;10.50;99.90;;;11.25;nan;97467.50;170980;28;1482;-72
2022/04/26 03:48:28;;;;;;;4.57;2.25;;;10.60;99.90;;;11.20;nan;97452.94;171073;28;863;-71
2022/04/26 03:48:34;;;;;;;5.17;2.40;;;10.50;99.90;;;11.17;nan;97453.34;172423;28;943;-71
2022/04/26 03:48:40;;;;;;;4.63;2.42;;;10.50;99.90;;;11.19;nan;97456.69;172410;28;1415;-71
2022/04/26 03:48:46;;;;;;;4.65;2.50;;;10.50;99.90;;;11.17;nan;97456.03;171667;28;1248;-71
2022/04/26 03:48:52;;;;;;;4.50;2.58;;;10.50;99.90;;;11.23;nan;97455.28;170871;28;1305;-71
2022/04/26 03:48:58;;;;;;;4.45;2.53;;;10.50;99.90;;;11.23;nan;97455.28;170447;29;1408;-71
2022/04/26 03:49:04;;;;;;;4.10;2.47;;;10.50;99.90;;;11.21;nan;97455.47;170426;29;852;-71
2022/04/26 03:49:10;;;;;;;4.30;2.40;;;10.50;99.90;;;11.18;nan;97449.63;170923;28;1465;-71
2022/04/26 03:49:16;;;;;;;4.25;2.40;;;10.50;99.90;;;11.20;nan;97458.34;171067;28;1267;-71
2022/04/26 03:49:23;;;;;;;4.43;2.45;;;10.50;99.90;;;11.22;nan;97454.44;172409;28;860;-71
2022/04/26 03:49:30;;;;;;;4.66;2.58;;;10.50;99.90;;;11.21;nan;97458.16;171645;28;1707;-71
2022/04/26 03:49:36;;;;;;;5.28;2.63;;;10.50;99.90;;;11.25;nan;97455.91;172135;28;1782;-71
2022/04/26 03:49:43;;;;;;;5.63;2.67;;;10.50;99.90;;;11.22;nan;97456.28;171811;28;832;-71
2022/04/26 03:49:49;;;;;;;5.93;2.63;;;10.50;99.90;;;11.29;nan;97463.44;171056;28;1305;-71
2022/04/26 03:49:55;;;;;;;5.90;2.55;;;10.50;99.90;;;11.32;nan;97459.50;171080;28;892;-71
2022/04/26 03:50:00;;;;;;;5.50;2.38;;;10.60;99.90;;;11.29;nan;97454.50;171639;28;1332;-71
2022/04/26 03:50:07;;;;;;;5.00;2.35;;;10.50;99.90;;;11.31;nan;97460.53;171105;28;828;-71
2022/04/26 03:50:13;;;;;;;5.27;2.40;;;10.50;99.90;;;11.25;nan;97445.13;170739;28;1648;-71
2022/04/26 03:50:18;;;;;;;4.95;2.40;;;10.50;99.90;;;11.27;nan;97448.47;172237;28;1780;-71
2022/04/26 03:50:24;;;;;;;4.75;2.53;;;10.50;99.90;;;11.30;nan;97454.31;172391;28;1003;-71
2022/04/26 03:50:30;;;;;;;4.75;2.60;;;10.50;99.90;;;11.32;nan;97463.03;172434;28;942;-71
2022/04/26 03:50:36;;;;;;;4.68;2.60;;;10.60;99.90;;;11.33;nan;97466.56;172474;28;801;-71
2022/04/26 03:50:42;;;;;;;4.43;2.60;;;10.60;99.90;;;11.29;nan;97462.59;173027;28;899;-71
2022/04/26 03:50:48;;;;;;;4.38;2.53;;;10.50;99.90;;;11.23;nan;97458.81;172312;28;1003;-71
2022/04/26 03:50:54;;;;;;;4.80;2.60;;;10.60;99.90;;;11.27;nan;97461.94;171716;28;1717;-71
2022/04/26 03:51:00;;;;;;;4.82;2.50;;;10.60;99.90;;;11.26;nan;97466.50;171660;28;2690;-71
2022/04/26 03:51:06;;;;;;;4.82;2.50;;;10.50;99.90;;;11.22;nan;97451.75;171011;28;877;-71
2022/04/26 03:51:12;;;;;;;4.67;2.40;;;10.60;99.90;;;11.25;nan;97467.50;172378;28;1193;-71
2022/04/26 03:51:18;;;;;;;4.82;2.45;;;10.60;99.90;;;11.19;nan;97449.41;171731;28;817;-71
2022/04/26 03:51:24;;;;;;;4.47;2.30;;;10.60;99.90;;;11.25;nan;97462.13;171752;28;1797;-71
2022/04/26 03:51:30;;;;;;;4.45;2.30;;;10.60;99.90;;;11.27;nan;97461.94;172126;28;1677;-71
2022/04/26 03:51:36;;;;;;;4.37;2.30;;;10.60;99.90;;;11.29;nan;97470.69;172294;28;1724;-71
2022/04/26 03:51:42;;;;;;;4.38;2.25;;;10.60;99.90;;;11.27;nan;97470.03;171671;28;1236;-71
2022/04/26 03:51:48;;;;;;;4.10;2.20;;;10.50;99.90;;;11.21;nan;97460.00;171045;28;1138;-71
2022/04/26 03:51:54;;;;;;;4.04;2.20;;;10.60;99.90;;;11.25;nan;97462.13;172517;28;950;-71
2022/04/26 03:52:01;;;;;;;3.42;2.13;;;10.60;99.90;;;11.25;nan;97467.50;172411;28;1214;-72
2022/04/26 03:52:07;;;;;;;3.53;2.15;;;10.60;99.90;;;11.18;nan;97460.41;172260;28;1604;-71
2022/04/26 03:52:14;;;;;;;3.27;2.13;;;10.60;99.90;;;11.20;nan;97464.56;170990;28;1233;-71
2022/04/26 03:52:21;;;;;;;4.38;2.22;;;10.50;99.90;;;11.20;nan;97461.03;171083;28;1046;-71
2022/04/26 03:52:26;;;;;;;5.00;2.23;;;10.60;99.90;;;11.22;nan;97467.91;172410;28;972;-71
2022/04/26 03:52:32;;;;;;;5.10;2.30;;;10.50;99.90;;;11.17;nan;97462.25;172209;28;1237;-71
2022/04/26 03:52:41;;;;;;;5.03;2.25;;;10.60;99.90;;;11.18;nan;97465.78;172440;28;828;-71
2022/04/26 03:52:52;;;;;;;5.43;2.45;;;10.50;99.90;;;11.14;nan;97465.31;172113;28;1769;-71
2022/04/26 03:52:58;;;;;;;4.49;2.44;;;10.60;99.90;;;11.16;nan;97463.28;172393;28;1225;-71
2022/04/26 03:53:04;;;;;;;4.75;2.45;;;10.50;99.90;;;11.17;nan;97464.97;171663;28;1388;-71
2022/04/26 03:53:10;;;;;;;4.75;2.40;;;10.50;99.90;;;11.12;nan;97458.47;171781;28;994;-71
2022/04/26 03:53:16;;;;;;;4.47;2.22;;;10.60;99.90;;;11.12;nan;97459.31;171728;28;1230;-71
2022/04/26 03:53:22;;;;;;;4.80;2.43;;;10.50;99.90;;;11.15;nan;97458.06;171010;28;1355;-71
2022/04/26 03:53:28;;;;;;;4.28;2.33;;;10.50;99.90;;;11.17;nan;97458.72;171063;28;939;-71
2022/04/26 03:53:34;;;;;;;4.25;2.30;;;10.50;99.90;;;11.17;nan;97467.66;171123;28;928;-71
2022/04/26 03:53:40;;;;;;;4.30;2.40;;;10.50;99.90;;;11.17;nan;97466.81;171119;28;852;-71
2022/04/26 03:53:47;;;;;;;4.22;2.38;;;10.50;99.90;;;11.16;nan;97468.66;171163;28;849;-71
2022/04/26 03:53:53;;;;;;;3.67;2.30;;;10.50;99.90;;;11.22;nan;97467.06;171177;28;876;-71
2022/04/26 03:53:59;;;;;;;3.75;2.35;;;10.50;99.90;;;11.20;nan;97469.13;170530;28;1603;-71
2022/04/26 03:54:04;;;;;;;4.10;2.53;;;10.50;99.90;;;11.16;nan;97462.44;171579;28;1166;-70
2022/04/26 03:54:10;;;;;;;4.13;2.60;;;10.50;99.90;;;11.16;nan;97468.66;171597;28;1647;-72
2022/04/26 03:54:16;;;;;;;4.45;2.67;;;10.50;99.90;;;11.19;nan;97472.84;172575;28;1636;-71
2022/04/26 03:54:24;;;;;;;4.80;2.77;;;10.50;99.90;;;11.19;nan;97468.28;170867;28;1318;-71
2022/04/26 03:54:30;;;;;;;4.73;2.67;;;10.50;99.90;;;11.13;nan;97460.97;170874;28;2059;-71
2022/04/26 03:54:36;;;;;;;4.30;2.50;;;10.50;99.90;;;11.09;nan;97468.59;170894;28;1741;-71
2022/04/26 03:54:42;;;;;;;4.68;2.60;;;10.50;99.90;;;11.02;nan;97458.78;171096;28;900;-71
2022/04/26 03:54:48;;;;;;;4.63;2.60;;;10.50;99.90;;;11.11;nan;97464.88;171547;28;1288;-71
2022/04/26 03:54:54;;;;;;;5.15;2.60;;;10.50;99.90;;;11.10;nan;97469.44;172340;28;1248;-71
2022/04/26 03:55:03;;;;;;;5.45;2.60;;;10.50;99.90;;;11.19;nan;97467.47;172416;28;1019;-71
2022/04/26 03:55:09;;;;;;;6.00;2.53;;;10.50;99.90;;;11.22;nan;97469.78;172451;28;1104;-71
2022/04/26 03:55:15;;;;;;;5.53;2.33;;;10.50;99.90;;;11.13;nan;97460.16;171784;28;1102;-71
2022/04/26 03:55:21;;;;;;;5.05;2.20;;;10.50;99.90;;;11.19;nan;97465.59;172477;28;911;-71
2022/04/26 03:55:27;;;;;;;5.10;2.27;;;10.50;99.90;;;11.18;nan;97472.03;170967;28;2031;-71
2022/04/26 03:55:34;;;;;;;4.75;2.35;;;10.50;99.90;;;11.20;nan;97463.72;171363;28;1008;-71
2022/04/26 03:55:41;;;;;;;4.42;2.44;;;10.50;99.90;;;11.18;nan;97469.31;171684;28;1509;-72
2022/04/26 03:55:47;;;;;;;4.60;2.50;;;10.50;99.90;;;11.18;nan;97466.63;172319;28;1308;-71
2022/04/26 03:55:53;;;;;;;4.37;2.40;;;10.50;99.90;;;11.19;nan;97462.09;172512;28;1011;-71
2022/04/26 03:55:58;;;;;;;3.97;2.40;;;10.50;99.90;;;11.10;nan;97458.66;173037;28;1395;-71
2022/04/26 03:56:05;;;;;;;4.60;2.35;;;10.50;99.90;;;11.10;nan;97464.03;171791;28;821;-71
2022/04/26 03:56:11;;;;;;;4.77;2.33;;;10.50;99.90;;;11.15;nan;97466.16;172369;28;848;-71
2022/04/26 03:56:16;;;;;;;4.55;2.40;;;10.50;99.90;;;11.17;nan;97470.34;172358;28;1232;-72
2022/04/26 03:56:22;;;;;;;4.73;2.43;;;10.50;99.90;;;11.18;nan;97465.78;171725;28;1004;-71
2022/04/26 03:56:28;;;;;;;5.10;2.42;;;10.50;99.90;;;11.16;nan;97459.75;171776;28;928;-71
2022/04/26 03:56:34;;;;;;;4.80;2.42;;;10.50;99.90;;;11.20;nan;97463.72;172244;28;1683;-71
2022/04/26 03:56:40;;;;;;;4.53;2.45;;;10.50;99.90;;;11.20;nan;97469.13;171123;28;844;-71
2022/04/26 03:56:46;;;;;;;4.80;2.40;;;10.50;99.90;;;11.15;nan;97456.22;171714;28;1640;-71
2022/04/26 03:56:52;;;;;;;4.50;2.40;;;10.50;99.90;;;11.15;nan;97466.16;171010;28;1307;-71
2022/04/26 03:56:58;;;;;;;4.38;2.33;;;10.50;99.90;;;11.13;nan;97460.16;172450;28;798;-71
2022/04/26 03:57:05;;;;;;;4.35;2.40;;;10.50;99.90;;;11.16;nan;97468.66;172223;28;1314;-71
2022/04/26 03:57:12;;;;;;;4.48;2.50;;;10.50;99.90;;;11.15;nan;97467.00;172334;28;977;-71
2022/04/26 03:57:18;;;;;;;4.27;2.40;;;10.50;99.90;;;11.16;nan;97465.13;171755;28;1779;-71
2022/04/26 03:57:24;;;;;;;4.25;2.40;;;10.50;99.90;;;11.11;nan;97464.88;171765;28;903;-72
2022/04/26 03:57:30;;;;;;;3.80;2.40;;;10.50;99.90;;;11.12;nan;97458.47;171615;28;1778;-71
2022/04/26 03:57:35;;;;;;;3.97;2.25;;;10.50;99.90;;;11.21;nan;97465.41;171300;28;923;-71
2022/04/26 03:57:42;;;;;;;3.97;2.27;;;10.50;99.90;;;11.20;nan;97466.41;171558;28;1438;-71
2022/04/26 03:57:48;;;;;;;4.28;2.42;;;10.50;99.90;;;11.15;nan;97467.00;171778;28;923;-71
2022/04/26 03:57:54;;;;;;;4.80;2.50;;;10.50;99.90;;;11.16;nan;97470.53;171734;28;995;-71
2022/04/26 03:57:59;;;;;;;4.82;2.40;;;10.50;99.90;;;11.11;nan;97459.50;172435;28;966;-71
2022/04/26 03:58:06;;;;;;;4.43;2.30;;;10.50;99.90;;;11.05;nan;97461.91;172393;28;987;-71
2022/04/26 03:58:11;;;;;;;4.25;2.30;;;10.50;99.90;;;11.08;nan;97458.03;170928;28;2878;-71
2022/04/26 03:58:18;;;;;;;3.90;2.20;;;10.50;99.90;;;11.08;nan;97468.81;171111;28;1268;-71
2022/04/26 03:58:25;;;;;;;4.20;2.20;;;10.50;99.90;;;11.11;nan;97464.88;171038;28;930;-72
2022/04/26 03:58:31;;;;;;;4.28;2.22;;;10.40;99.90;;;11.13;nan;97466.38;171100;28;895;-71
2022/04/26 03:58:37;;;;;;;4.18;2.20;;;10.50;99.90;;;11.06;nan;97457.38;171092;28;959;-72
2022/04/26 03:58:43;;;;;;;4.20;2.20;;;10.50;99.90;;;11.15;nan;97468.84;171623;28;1906;-71
2022/04/26 03:58:49;;;;;;;4.00;2.14;;;10.50;99.90;;;11.14;nan;97470.72;171772;28;947;-71
2022/04/26 03:58:54;;;;;;;3.80;2.17;;;10.50;99.90;;;11.11;nan;97467.56;171741;28;912;-71
2022/04/26 03:59:00;;;;;;;4.47;2.20;;;10.50;99.90;;;11.05;nan;97455.69;171214;28;1045;-72
2022/04/26 03:59:06;;;;;;;4.82;2.30;;;10.50;99.90;;;11.01;nan;97457.94;171059;28;849;-71
2022/04/26 03:59:13;;;;;;;5.20;2.33;;;10.40;99.90;;;11.06;nan;97462.75;170939;28;1202;-71
2022/04/26 03:59:19;;;;;;;5.60;2.40;;;10.50;99.90;;;11.08;nan;97466.94;171666;28;1301;-71
2022/04/26 03:59:25;;;;;;;5.53;2.63;;;10.50;99.90;;;11.08;nan;97466.13;171123;28;1043;-71
2022/04/26 03:59:31;;;;;;;5.05;2.78;;;10.50;99.90;;;11.11;nan;97472.97;170965;28;1221;-71
2022/04/26 03:59:37;;;;;;;5.13;2.80;;;10.50;99.90;;;10.99;nan;97443.00;171050;28;968;-71
2022/04/26 03:59:43;;;;;;;5.50;2.97;;;10.50;99.90;;;11.01;nan;97452.56;171178;28;1408;-71
2022/04/26 03:59:49;;;;;;;5.43;3.00;;;10.50;99.90;;;11.09;nan;97467.75;172337;28;1354;-71
2022/04/26 03:59:56;;;;;;;5.13;2.85;;;10.50;99.90;;;11.04;nan;97460.25;171824;28;804;-71
2022/04/26 04:00:03;;;;;;;4.95;2.63;;;10.50;99.90;;;11.06;nan;97465.44;171671;28;1351;-71
2022/04/26 04:00:10;;;;;;;4.53;2.47;;;10.50;99.90;;;11.08;nan;97461.56;172684;28;1556;-71
2022/04/26 04:00:16;;;;;;;3.63;2.17;;;10.50;99.90;;;11.11;nan;97464.88;172470;28;1014;-72
2022/04/26 04:00:22;;;;;;;3.80;2.10;;;10.50;99.90;;;11.01;nan;97451.72;171774;28;991;-71
2022/04/26 04:00:28;;;;;;;3.85;2.20;;;10.50;99.90;;;11.05;nan;97461.91;171659;28;987;-71
2022/04/26 04:00:34;;;;;;;4.07;2.42;;;10.50;99.90;;;11.15;nan;97468.84;172427;28;903;-71
2022/04/26 04:00:40;;;;;;;5.90;2.60;;;10.50;99.90;;;11.16;nan;97470.53;171650;28;1246;-71
2022/04/26 04:00:46;;;;;;;6.90;2.80;;;10.50;99.90;;;11.13;nan;97468.22;171856;28;939;-71
2022/04/26 04:00:53;;;;;;;8.32;2.90;;;10.50;99.90;;;11.16;nan;97470.53;171072;28;1061;-71
2022/04/26 04:01:00;;;;;;;7.80;2.70;;;10.50;99.90;;;11.17;nan;97464.13;172166;28;1566;-71
2022/04/26 04:01:06;;;;;;;7.82;2.66;;;10.50;99.90;;;11.17;nan;97469.50;171194;28;1884;-71
2022/04/26 04:01:12;;;;;;;5.85;2.45;;;10.50;99.90;;;11.17;nan;97469.50;170938;28;1575;-71
2022/04/26 04:01:18;;;;;;;5.63;2.27;;;10.50;99.90;;;11.14;nan;97464.50;171002;28;1380;-71
2022/04/26 04:01:23;;;;;;;4.55;2.20;;;10.50;99.90;;;11.15;nan;97461.59;171122;28;880;-71
2022/04/26 04:01:29;;;;;;;4.45;2.20;;;10.50;99.90;;;11.14;nan;97472.59;171667;28;1343;-71
2022/04/26 04:01:35;;;;;;;4.47;2.17;;;10.50;99.90;;;11.12;nan;97469.25;171757;28;899;-71
2022/04/26 04:01:42;;;;;;;4.90;2.20;;;10.50;99.90;;;11.12;nan;97471.94;171818;28;1183;-71
2022/04/26 04:01:48;;;;;;;5.76;2.36;;;10.50;99.90;;;11.14;nan;97459.13;172405;28;1327;-71
2022/04/26 04:01:54;;;;;;;6.07;2.40;;;10.50;99.90;;;11.13;nan;97457.44;172342;28;864;-71
2022/04/26 04:02:00;;;;;;;6.43;2.42;;;10.50;99.90;;;11.15;nan;97463.47;172347;28;1529;-71
2022/04/26 04:02:06;;;;;;;6.23;2.40;;;10.50;99.90;;;11.17;nan;97464.13;172350;28;1182;-71
2022/04/26 04:02:12;;;;;;;5.90;2.40;;;10.50;99.90;;;11.21;nan;97468.09;172309;28;1361;-71
2022/04/26 04:02:17;;;;;;;4.80;2.47;;;10.50;99.90;;;11.18;nan;97463.09;171777;28;856;-71
2022/04/26 04:02:24;;;;;;;5.13;2.65;;;10.50;99.90;;;11.18;nan;97463.09;171756;28;907;-71
2022/04/26 04:02:29;;;;;;;5.25;2.63;;;10.50;99.90;;;11.21;nan;97468.94;172331;28;915;-71
2022/04/26 04:02:35;;;;;;;5.78;2.63;;;10.50;99.90;;;11.24;nan;97468.56;171649;28;1310;-71
2022/04/26 04:02:41;;;;;;;7.40;2.67;;;10.50;99.90;;;11.25;nan;97461.28;171768;28;805;-71
2022/04/26 04:02:47;;;;;;;7.28;2.50;;;10.50;99.90;;;11.30;nan;97464.25;171629;28;923;-71
2022/04/26 04:02:53;;;;;;;6.60;2.40;;;10.50;99.90;;;11.23;nan;97455.28;171650;28;1226;-71
2022/04/26 04:03:00;;;;;;;6.60;2.50;;;10.50;99.90;;;11.29;nan;97463.44;173139;28;796;-72
2022/04/26 04:03:06;;;;;;;5.70;2.46;;;10.50;99.90;;;11.24;nan;97456.94;173524;28;1699;-72
2022/04/26 04:03:12;;;;;;;4.43;2.38;;;10.50;99.90;;;11.26;nan;97473.75;172258;28;1314;-71
2022/04/26 04:03:18;;;;;;;4.50;2.30;;;10.50;99.90;;;11.27;nan;97470.03;172877;28;1877;-71
2022/04/26 04:03:25;;;;;;;4.93;2.27;;;10.50;99.90;;;11.24;nan;97465.88;172402;28;1249;-71